Time;durP1;ratioP1;P1;durP2;ratioP2;P2;SDS_P1;SDS_P2;PMS_P1;PMS_P2;Temp;Humidity;BMP_temperature;BMP_pressure;BME280_temperature;BME280_humidity;BME280_pressure;Samples;Min_cycle;Max_cycle;Signal;HPM_P1;HPM_P2
2022/12/04 00:01:21;;;;;;;77.57;46.17;;;;;;;4.29;100.00;101162.00;5091463;28;20063;-71
2022/12/04 00:03:50;;;;;;;88.90;47.55;;;;;;;4.38;100.00;101174.84;5092177;28;20026;-70
2022/12/04 00:06:18;;;;;;;90.97;51.28;;;;;;;4.31;100.00;101164.59;5090412;28;20039;-71
2022/12/04 00:08:45;;;;;;;88.07;48.92;;;;;;;4.32;100.00;101166.34;5090111;28;20103;-70
2022/12/04 00:11:13;;;;;;;89.43;49.63;;;;;;;4.28;100.00;101160.28;5091305;28;20057;-70
2022/12/04 00:13:40;;;;;;;82.10;46.97;;;;;;;4.35;100.00;101179.44;5091320;28;20807;-71
2022/12/04 00:16:07;;;;;;;87.90;48.45;;;;;;;4.33;100.00;101173.34;5091231;28;20035;-71
2022/12/04 00:18:34;;;;;;;81.75;47.63;;;;;;;4.43;100.00;101188.78;5091418;28;20474;-70
2022/12/04 00:21:06;;;;;;;89.18;46.10;;;;;;;4.41;100.00;101192.41;5091096;28;20034;-71
2022/12/04 00:23:32;;;;;;;86.15;47.63;;;;;;;4.12;100.00;101140.72;5089559;28;20027;-72
2022/12/04 00:26:02;;;;;;;90.43;49.00;;;;;;;4.39;100.00;101191.66;5088736;28;20480;-71
2022/12/04 00:28:27;;;;;;;87.70;46.30;;;;;;;4.27;100.00;101181.59;5090890;28;20032;-70
2022/12/04 00:30:53;;;;;;;81.35;46.13;;;;;;;4.14;100.00;101162.78;5089364;28;20036;-70
2022/12/04 00:33:18;;;;;;;87.65;47.72;;;;;;;4.35;100.00;101195.34;5093448;28;20036;-70
2022/12/04 00:35:44;;;;;;;88.28;46.65;;;;;;;4.22;100.00;101184.47;5090752;28;20066;-69
2022/12/04 00:38:09;;;;;;;85.03;46.88;;;;;;;4.13;100.00;101176.94;5089340;28;20061;-70
2022/12/04 00:40:35;;;;;;;78.70;44.78;;;;;;;4.20;100.00;101181.03;5087543;28;20035;-70
2022/12/04 00:43:00;;;;;;;88.50;47.85;;;;;;;4.24;100.00;101197.69;5089130;28;20090;-70
2022/12/04 00:45:25;;;;;;;81.63;47.45;;;;;;;4.06;100.00;101164.91;5088926;28;20024;-70
2022/12/04 00:47:51;;;;;;;83.20;45.67;;;;;;;4.16;100.00;101176.81;5090555;28;20049;-70
2022/12/04 00:50:16;;;;;;;75.43;45.17;;;;;;;4.10;100.00;101173.59;5090866;28;20031;-69
2022/12/04 00:52:42;;;;;;;82.50;45.58;;;;;;;4.18;100.00;101187.34;5088909;28;20055;-70
2022/12/04 00:55:08;;;;;;;75.47;43.22;;;;;;;4.12;100.00;101188.50;5090494;28;20157;-70
2022/12/04 00:57:33;;;;;;;70.68;43.90;;;;;;;4.07;100.00;101177.25;5090429;28;20066;-70
2022/12/04 00:59:58;;;;;;;70.47;43.15;;;;;;;4.02;100.00;101173.09;5090075;28;20036;-69
2022/12/04 01:02:24;;;;;;;76.35;45.03;;;;;;;4.00;100.00;101178.47;5091570;28;20082;-70
2022/12/04 01:04:49;;;;;;;73.75;42.90;;;;;;;4.08;100.00;101191.38;5090848;28;20059;-71
2022/12/04 01:07:15;;;;;;;70.25;42.67;;;;;;;3.84;100.00;101160.72;5090287;28;20515;-71
2022/12/04 01:09:40;;;;;;;72.53;41.90;;;;;;;3.72;100.00;101130.31;5088406;28;20620;-70
2022/12/04 01:12:06;;;;;;;72.80;43.33;;;;;;;3.99;100.00;101189.16;5089939;28;20520;-70
2022/12/04 01:14:31;;;;;;;68.72;41.75;;;;;;;4.05;100.00;101194.19;5089435;28;20453;-68
2022/12/04 01:16:57;;;;;;;66.22;41.53;;;;;;;4.01;100.00;101187.31;5088288;28;20024;-70
2022/12/04 01:19:22;;;;;;;65.93;40.33;;;;;;;3.90;100.00;101163.09;5089994;28;20046;-70
2022/12/04 01:21:48;;;;;;;63.95;39.65;;;;;;;3.88;100.00;101156.97;5087957;28;20043;-70
2022/12/04 01:24:13;;;;;;;63.92;37.10;;;;;;;3.77;100.00;101138.06;5089713;28;20032;-70
2022/12/04 01:26:39;;;;;;;60.20;38.75;;;;;;;4.05;100.00;101180.91;5089689;28;20464;-71
2022/12/04 01:29:04;;;;;;;66.00;37.17;;;;;;;3.97;100.00;101167.16;5089309;28;20122;-70
2022/12/04 01:31:30;;;;;;;65.72;38.80;;;;;;;4.14;100.00;101172.50;5089616;28;20069;-69
2022/12/04 01:33:56;;;;;;;52.53;32.53;;;;;;;4.05;100.00;101159.69;5090492;28;20035;-70
2022/12/04 01:36:25;;;;;;;53.70;33.92;;;;;;;4.08;100.00;101159.53;5089556;28;20067;-69
2022/12/04 01:38:50;;;;;;;51.75;33.00;;;;;;;4.09;100.00;101156.81;5087992;28;20035;-70
2022/12/04 01:41:22;;;;;;;46.83;29.63;;;;;;;4.15;100.00;101180.41;5089106;28;20039;-70
2022/12/04 01:44:26;;;;;;;49.72;30.33;;;;;;;4.07;100.00;101163.13;5089357;28;20567;-70
2022/12/04 01:46:56;;;;;;;56.07;34.07;;;;;;;4.15;100.00;101167.13;5026521;28;20025;-71
2022/12/04 01:49:23;;;;;;;57.58;35.85;;;;;;;4.17;100.00;101164.41;5026956;28;20414;-70
2022/12/04 01:51:55;;;;;;;56.70;33.88;;;;;;;4.08;100.00;101143.59;5058160;28;20059;-70
2022/12/04 01:54:35;;;;;;;54.45;33.53;;;;;;;4.12;100.00;101145.19;5089064;28;20084;-71
2022/12/04 01:57:05;;;;;;;58.55;35.20;;;;;;;4.06;100.00;101140.16;5086564;28;20030;-70
2022/12/04 01:59:38;;;;;;;51.08;32.83;;;;;;;4.07;100.00;101149.88;5088936;28;20027;-70
2022/12/04 02:02:16;;;;;;;54.72;33.38;;;;;;;4.07;100.00;101140.09;5089330;28;20027;-69
2022/12/04 02:04:42;;;;;;;51.97;30.55;;;;;;;4.06;100.00;101142.81;5088440;28;20055;-71
2022/12/04 02:07:08;;;;;;;47.28;30.33;;;;;;;3.91;100.00;101119.69;5089197;28;20082;-74
2022/12/04 02:09:38;;;;;;;41.85;27.58;;;;;;;3.98;100.00;101126.41;5089503;28;20043;-69
2022/12/04 02:12:35;;;;;;;46.10;28.63;;;;;;;4.06;100.00;101129.53;5087408;28;20518;-70
2022/12/04 02:15:15;;;;;;;42.50;25.73;;;;;;;4.06;100.00;101130.41;5087794;28;20063;-70
2022/12/04 02:18:01;;;;;;;42.72;25.73;;;;;;;4.07;100.00;101133.94;5087899;28;20023;-70
2022/12/04 02:20:32;;;;;;;39.35;25.13;;;;;;;4.16;100.00;101141.47;5088532;28;20028;-74
2022/12/04 02:23:33;;;;;;;38.72;22.77;;;;;;;4.16;100.00;101142.31;5088490;28;20035;-75
2022/12/04 02:26:27;;;;;;;33.83;21.40;;;;;;;4.16;100.00;101136.16;5087830;28;20031;-76
2022/12/04 02:29:08;;;;;;;36.03;22.50;;;;;;;4.01;100.00;101115.66;5079352;28;20046;-74
2022/12/04 02:31:39;;;;;;;35.03;21.42;;;;;;;4.10;100.00;101134.63;5088005;28;20468;-74
2022/12/04 02:34:34;;;;;;;34.13;20.40;;;;;;;4.13;100.00;101125.69;5088002;28;20024;-74
2022/12/04 02:37:13;;;;;;;31.25;20.35;;;;;;;4.05;100.00;101122.53;5111408;27;20122;-73
2022/12/04 02:39:47;;;;;;;32.10;20.10;;;;;;;4.08;100.00;101133.88;5087489;28;20042;-74
2022/12/04 02:42:26;;;;;;;32.15;21.10;;;;;;;4.07;100.00;101123.31;5087403;28;20055;-74
2022/12/04 02:45:00;;;;;;;31.67;19.65;;;;;;;4.00;100.00;101113.94;5083657;28;20466;-74
2022/12/04 02:47:27;;;;;;;31.85;20.02;;;;;;;4.03;100.00;101121.75;5086593;28;20028;-73
2022/12/04 02:50:06;;;;;;;29.70;19.45;;;;;;;4.04;100.00;101116.38;5086258;28;20020;-74
2022/12/04 02:52:35;;;;;;;32.20;18.83;;;;;;;4.10;100.00;101126.66;5086690;28;20048;-74
2022/12/04 02:55:11;;;;;;;32.67;19.30;;;;;;;4.11;100.00;101139.03;5086576;28;20506;-74
2022/12/04 02:57:43;;;;;;;35.75;20.42;;;;;;;4.04;100.00;101115.50;5087285;28;20101;-73
2022/12/04 03:00:09;;;;;;;36.15;21.73;;;;;;;3.93;100.00;101099.22;5087396;28;20024;-74
2022/12/04 03:02:46;;;;;;;34.95;22.10;;;;;;;4.10;100.00;101126.66;5087384;28;20027;-73
2022/12/04 03:05:16;;;;;;;35.78;22.92;;;;;;;4.06;100.00;101130.41;5087306;28;20317;-74
2022/12/04 03:07:47;;;;;;;34.72;22.50;;;;;;;4.07;100.00;101125.97;5090507;28;20524;-73
2022/12/04 03:10:17;;;;;;;35.35;22.90;;;;;;;3.98;100.00;101115.78;5085437;28;20028;-73
2022/12/04 03:12:54;;;;;;;37.42;24.38;;;;;;;4.05;100.00;101125.19;5100674;28;20492;-74
2022/12/04 03:15:22;;;;;;;38.15;23.30;;;;;;;4.00;100.00;101121.91;5085789;28;20366;-74
2022/12/04 03:18:06;;;;;;;40.38;25.92;;;;;;;3.97;100.00;101130.00;5084826;28;20032;-74
2022/12/04 03:20:35;;;;;;;41.08;25.75;;;;;;;3.98;100.00;101129.06;5085948;28;20162;-75
2022/12/04 03:23:25;;;;;;;41.05;25.98;;;;;;;3.94;100.00;101119.53;5088364;28;20023;-71
2022/12/04 03:26:09;;;;;;;39.63;25.35;;;;;;;3.86;100.00;101103.09;5090804;28;20504;-74
2022/12/04 03:28:37;;;;;;;;;;;;;;;3.91;100.00;101111.72;5091646;28;20034;-74
2022/12/04 03:31:06;;;;;;;36.85;23.63;;;;;;;3.86;100.00;101111.06;5091912;28;19919;-74
2022/12/04 03:33:55;;;;;;;39.63;24.98;;;;;;;3.83;100.00;101108.56;5093556;28;20023;-75
2022/12/04 03:36:26;;;;;;;36.22;24.70;;;;;;;3.75;100.00;101102.78;5093623;28;20024;-74
2022/12/04 03:39:14;;;;;;;37.30;23.45;;;;;;;3.69;100.00;101092.44;5093712;28;20051;-75
2022/12/04 03:42:24;;;;;;;37.75;23.92;;;;;;;3.77;100.00;101114.19;5093632;28;20040;-74
2022/12/04 03:44:57;;;;;;;36.85;22.08;;;;;;;3.75;100.00;101114.25;5084148;28;20139;-74
2022/12/04 03:47:36;;;;;;;35.28;22.80;;;;;;;3.74;100.00;101111.66;5095497;28;20028;-75
2022/12/04 03:50:12;;;;;;;34.40;21.67;;;;;;;3.74;100.00;101120.47;5093572;28;20488;-75
2022/12/04 03:53:03;;;;;;;32.55;20.48;;;;;;;3.72;100.00;101127.66;5093423;28;20028;-75
2022/12/04 03:55:32;;;;;;;28.33;19.30;;;;;;;3.59;100.00;101104.41;5092450;28;20031;-74
2022/12/04 03:58:02;;;;;;;32.83;19.05;;;;;;;3.70;100.00;101128.63;5092950;28;20035;-73
2022/12/04 04:00:29;;;;;;;29.05;18.00;;;;;;;3.69;100.00;101135.75;5093652;28;20055;-74
2022/12/04 04:03:02;;;;;;;27.13;17.30;;;;;;;3.65;100.00;101126.19;5092087;28;20020;-75
2022/12/04 04:05:31;;;;;;;28.17;16.80;;;;;;;3.69;100.00;101137.53;5093082;28;20019;-74
2022/12/04 04:10:46;;;;;;;27.38;15.80;;;;;;;3.68;100.00;101123.41;5092302;28;20092;-74
2022/12/04 04:24:33;;;;;;;28.15;18.10;;;;;;;3.68;100.00;101128.72;5093842;28;20101;-75
2022/12/04 04:26:59;;;;;;;29.60;19.15;;;;;;;3.52;100.00;101108.28;5093122;28;20495;-74
2022/12/04 04:29:25;;;;;;;35.35;21.38;;;;;;;3.56;100.00;101116.03;5093689;28;20112;-74
2022/12/04 04:32:22;;;;;;;34.33;21.77;;;;;;;3.63;100.00;101133.38;5093184;28;20497;-74
2022/12/04 04:35:05;;;;;;;35.05;23.27;;;;;;;3.57;100.00;101124.84;5092420;28;20417;-74
2022/12/04 04:37:52;;;;;;;40.47;24.77;;;;;;;3.55;100.00;101139.97;5093885;28;20108;-74
2022/12/04 04:40:25;;;;;;;38.20;25.15;;;;;;;3.38;100.00;101114.22;5090335;28;20089;-75
2022/12/04 04:43:03;;;;;;;35.60;24.53;;;;;;;3.43;100.00;101116.66;5092999;28;20502;-74
2022/12/04 04:45:31;;;;;;;37.13;25.60;;;;;;;3.45;100.00;101136.88;5090939;28;20032;-74
2022/12/04 04:48:26;;;;;;;41.60;26.20;;;;;;;3.43;100.00;101129.94;5092780;28;20035;-74
2022/12/04 04:50:53;;;;;;;39.33;26.25;;;;;;;3.42;100.00;101131.72;5086748;28;20032;-72
2022/12/04 04:53:25;;;;;;;39.58;24.95;;;;;;;3.43;100.00;101137.88;5108224;28;20032;-74
2022/12/04 04:55:51;;;;;;;41.08;26.48;;;;;;;3.37;100.00;101135.50;5092819;28;20659;-74
2022/12/04 04:58:19;;;;;;;42.67;26.17;;;;;;;3.38;100.00;101129.25;5092266;28;20016;-74
2022/12/04 05:01:06;;;;;;;41.30;26.27;;;;;;;3.29;100.00;101121.75;5092797;28;20035;-74
2022/12/04 05:03:32;;;;;;;41.15;25.40;;;;;;;3.33;100.00;101136.56;5092903;28;20020;-74
2022/12/04 05:05:58;;;;;;;40.85;26.65;;;;;;;3.28;100.00;101131.47;5094220;28;20062;-74
2022/12/04 05:08:24;;;;;;;43.72;28.13;;;;;;;3.20;100.00;101135.41;5092499;28;20024;-74
2022/12/04 05:10:49;;;;;;;44.40;26.80;;;;;;;3.21;100.00;101147.72;5092242;28;20107;-74
2022/12/04 05:13:16;;;;;;;42.05;27.70;;;;;;;3.06;100.00;101128.06;5090997;28;20127;-74
2022/12/04 05:15:42;;;;;;;41.50;27.05;;;;;;;3.12;100.00;101142.81;5092749;28;20032;-74
2022/12/04 05:18:08;;;;;;;39.70;26.80;;;;;;;3.08;100.00;101142.13;5092444;28;20835;-74
2022/12/04 05:20:37;;;;;;;43.20;28.27;;;;;;;2.99;100.00;101139.88;5089949;28;20028;-75
2022/12/04 05:23:03;;;;;;;45.00;29.95;;;;;;;2.95;100.00;101145.34;5092211;28;20044;-74
2022/12/04 05:25:28;;;;;;;46.85;30.10;;;;;;;2.78;100.00;101124.91;5092114;28;21714;-74
2022/12/04 05:27:54;;;;;;;47.03;32.17;;;;;;;2.72;100.00;101119.88;5092572;28;20042;-74
2022/12/04 05:30:19;;;;;;;46.80;31.98;;;;;;;2.75;100.00;101145.38;5091939;28;20024;-73
2022/12/04 05:32:45;;;;;;;46.47;31.65;;;;;;;2.57;100.00;101119.69;5092268;28;20052;-73
2022/12/04 05:35:10;;;;;;;48.40;31.40;;;;;;;2.52;100.00;101121.66;5091798;28;20031;-73
2022/12/04 05:37:37;;;;;;;47.45;32.33;;;;;;;2.60;100.00;101146.88;5092125;28;20028;-73
2022/12/04 05:40:04;;;;;;;49.47;32.03;;;;;;;2.53;100.00;101148.06;5087914;28;20097;-73
2022/12/04 05:42:30;;;;;;;52.40;31.77;;;;;;;2.32;100.00;101127.75;5091893;28;20044;-73
2022/12/04 05:44:55;;;;;;;51.50;32.65;;;;;;;2.36;100.00;101138.16;5091580;28;20094;-73
2022/12/04 05:47:20;;;;;;;51.60;33.03;;;;;;;2.29;100.00;101134.06;5090774;28;20028;-74
2022/12/04 05:49:46;;;;;;;49.63;32.03;;;;;;;2.31;100.00;101153.38;5091848;28;20028;-74
2022/12/04 05:52:12;;;;;;;51.83;32.40;;;;;;;2.26;100.00;101155.34;5091161;28;20028;-73
2022/12/04 05:54:37;;;;;;;48.45;31.38;;;;;;;2.21;100.00;101146.75;5089883;28;20046;-74
2022/12/04 05:57:03;;;;;;;48.55;32.03;;;;;;;2.12;100.00;101141.81;5091319;28;20032;-73
2022/12/04 05:59:28;;;;;;;49.17;33.75;;;;;;;2.04;100.00;101140.41;5091650;28;20659;-71
2022/12/04 06:01:54;;;;;;;47.67;31.92;;;;;;;2.10;100.00;101150.75;5091393;28;20107;-74
2022/12/04 06:04:19;;;;;;;48.95;31.60;;;;;;;2.09;100.00;101157.81;5091426;28;20499;-72
2022/12/04 06:06:45;;;;;;;50.55;31.90;;;;;;;2.03;100.00;101149.25;5090088;28;20591;-74
2022/12/04 06:09:11;;;;;;;49.28;31.90;;;;;;;2.12;100.00;101176.22;5091398;28;20035;-72
2022/12/04 06:11:38;;;;;;;49.00;32.28;;;;;;;2.07;100.00;101166.75;5090854;28;20050;-72
2022/12/04 06:14:06;;;;;;;49.05;31.55;;;;;;;2.00;100.00;101158.19;5090095;28;20056;-73
2022/12/04 06:16:35;;;;;;;49.47;31.50;;;;;;;2.04;100.00;101174.81;5090950;28;20369;-72
2022/12/04 06:19:04;;;;;;;49.38;32.75;;;;;;;1.94;100.00;101163.69;5090613;28;20421;-70
2022/12/04 06:21:32;;;;;;;49.83;33.28;;;;;;;1.96;100.00;101167.16;5088640;28;20403;-70
2022/12/04 06:23:57;;;;;;;51.67;32.25;;;;;;;1.80;100.00;101152.81;5088076;28;20076;-70
2022/12/04 06:26:24;;;;;;;50.72;32.88;;;;;;;1.85;100.00;101164.09;5090274;28;20114;-70
2022/12/04 06:28:53;;;;;;;52.20;32.35;;;;;;;1.92;100.00;101170.84;5090774;28;20031;-74
2022/12/04 06:31:19;;;;;;;50.60;32.97;;;;;;;1.91;100.00;101163.81;5088475;28;20035;-73
2022/12/04 06:33:45;;;;;;;56.78;35.00;;;;;;;1.93;100.00;101163.75;5091174;28;20381;-74
2022/12/04 06:36:13;;;;;;;53.97;34.83;;;;;;;1.89;100.00;101163.03;5091048;28;20035;-73
2022/12/04 06:38:39;;;;;;;60.17;34.67;;;;;;;1.90;100.00;101156.81;5089342;28;20052;-73
2022/12/04 06:41:06;;;;;;;62.67;36.33;;;;;;;1.85;100.00;101158.78;5090284;28;20050;-72
2022/12/04 06:43:32;;;;;;;62.97;38.42;;;;;;;1.92;100.00;101170.84;5088978;28;20036;-73
2022/12/04 06:46:00;;;;;;;60.95;35.33;;;;;;;1.83;100.00;101147.41;5087898;28;20059;-72
2022/12/04 06:48:28;;;;;;;58.83;34.55;;;;;;;1.97;100.00;101162.75;5090471;28;20035;-73
2022/12/04 06:51:10;;;;;;;56.72;34.70;;;;;;;1.93;100.00;101156.69;5090738;28;20148;-73
2022/12/04 06:53:36;;;;;;;56.10;34.92;;;;;;;1.93;100.00;101151.41;5089556;28;20520;-73
2022/12/04 06:56:04;;;;;;;57.20;36.10;;;;;;;1.95;100.00;101160.16;5090341;28;20032;-73
2022/12/04 06:58:30;;;;;;;57.33;35.28;;;;;;;1.72;100.00;101117.00;5090452;28;20399;-73
2022/12/04 07:00:56;;;;;;;55.60;34.80;;;;;;;1.98;100.00;101153.88;5089349;28;20028;-74
2022/12/04 07:03:23;;;;;;;59.92;36.10;;;;;;;2.01;100.00;101154.63;5088891;28;20016;-73
2022/12/04 07:05:49;;;;;;;60.78;35.13;;;;;;;2.01;100.00;101154.63;5090384;28;20031;-73
2022/12/04 07:08:14;;;;;;;55.65;34.58;;;;;;;2.03;100.00;101152.75;5084561;28;20028;-72
2022/12/04 07:10:41;;;;;;;56.00;33.85;;;;;;;2.06;100.00;101155.28;5089300;28;20361;-72
2022/12/04 07:13:07;;;;;;;54.58;34.00;;;;;;;1.90;100.00;101140.06;5087291;28;20070;-73
2022/12/04 07:15:34;;;;;;;54.83;33.33;;;;;;;2.02;100.00;101155.47;5086537;28;20040;-72
2022/12/04 07:17:59;;;;;;;56.97;35.83;;;;;;;2.00;100.00;101157.34;5086136;28;20130;-73
2022/12/04 07:20:25;;;;;;;59.28;36.45;;;;;;;1.97;100.00;101153.00;5088349;28;20028;-73
2022/12/04 07:22:51;;;;;;;56.03;33.30;;;;;;;2.01;100.00;101157.28;5089377;28;20050;-72
2022/12/04 07:25:16;;;;;;;61.28;35.22;;;;;;;2.10;100.00;101169.28;5088041;28;20088;-72
2022/12/04 07:27:42;;;;;;;52.22;32.75;;;;;;;2.11;100.00;101163.91;5088799;28;20023;-73
2022/12/04 07:30:08;;;;;;;58.33;35.67;;;;;;;2.17;100.00;101155.72;5088672;28;20111;-74
2022/12/04 07:32:34;;;;;;;57.97;36.92;;;;;;;2.05;100.00;101132.41;5088039;28;20024;-73
2022/12/04 07:35:00;;;;;;;60.58;36.50;;;;;;;2.18;100.00;101154.81;5089150;28;20039;-73
2022/12/04 07:37:25;;;;;;;56.72;34.47;;;;;;;2.19;100.00;101151.22;5087619;28;20040;-71
2022/12/04 07:39:51;;;;;;;63.65;35.75;;;;;;;2.02;100.00;101113.16;5087414;28;20034;-70
2022/12/04 07:42:17;;;;;;;64.85;37.63;;;;;;;2.28;100.00;101147.34;5087734;28;20109;-70
2022/12/04 07:44:43;;;;;;;58.33;35.75;;;;;;;2.24;100.00;101130.75;5087663;28;20028;-71
2022/12/04 07:47:08;;;;;;;58.45;35.33;;;;;;;2.33;100.00;101137.44;5087107;28;20036;-70
2022/12/04 07:49:34;;;;;;;61.88;34.08;;;;;;;2.45;100.00;101150.16;5086250;28;20020;-70
2022/12/04 07:51:59;;;;;;;55.15;32.70;;;;;;;2.54;100.00;101155.06;5086403;28;20028;-71
2022/12/04 07:54:24;;;;;;;59.45;32.78;;;;;;;2.47;100.00;101128.91;5087465;28;20453;-70
2022/12/04 07:56:50;;;;;;;55.05;33.13;;;;;;;2.46;100.00;101113.97;5088607;28;20495;-71
2022/12/04 07:59:15;;;;;;;51.78;32.58;;;;;;;2.62;100.00;101125.63;5087843;28;20028;-69
2022/12/04 08:01:41;;;;;;;54.30;33.00;;;;;;;2.69;100.00;101132.38;5087289;28;20084;-70
2022/12/04 08:04:06;;;;;;;59.13;34.03;;;;;;;2.66;100.00;101122.78;5087614;28;20073;-70
2022/12/04 08:06:34;;;;;;;55.83;34.45;;;;;;;2.85;100.00;101146.69;5086881;28;20027;-70
2022/12/04 08:08:59;;;;;;;55.50;32.83;;;;;;;2.82;100.00;101115.03;5082752;28;20559;-69
2022/12/04 08:11:27;;;;;;;53.03;33.55;;;;;;;2.80;100.00;101111.63;5084271;28;20073;-69
2022/12/04 08:13:57;;;;;;;50.08;31.85;;;;;;;2.88;100.00;101118.28;5089548;28;20028;-70
2022/12/04 08:16:23;;;;;;;48.72;30.98;;;;;;;3.14;100.00;101141.84;5089614;28;20077;-68
2022/12/04 08:18:49;;;;;;;50.33;31.05;;;;;;;3.07;100.00;101121.84;5090800;28;20345;-69
2022/12/04 08:21:21;;;;;;;49.55;30.50;;;;;;;3.21;100.00;101142.41;5090385;28;20101;-69
2022/12/04 08:23:49;;;;;;;47.67;29.67;;;;;;;3.27;100.00;101139.50;5089068;28;20020;-68
2022/12/04 08:26:14;;;;;;;50.83;30.55;;;;;;;3.36;100.00;101141.75;5090327;28;20093;-69
2022/12/04 08:28:40;;;;;;;48.00;30.52;;;;;;;3.43;100.00;101151.13;5089703;28;20032;-70
2022/12/04 08:31:11;;;;;;;45.33;27.88;;;;;;;3.48;100.00;101142.03;5088716;28;20052;-70
2022/12/04 08:33:36;;;;;;;48.13;30.15;;;;;;;3.32;100.00;101113.66;5087841;28;20127;-70
2022/12/04 08:36:06;;;;;;;44.47;27.83;;;;;;;3.68;100.00;101144.63;5087668;28;20445;-71
2022/12/04 08:38:31;;;;;;;48.75;31.10;;;;;;;3.72;100.00;101146.22;5091172;28;20032;-70
2022/12/04 08:41:02;;;;;;;50.72;31.13;;;;;;;3.70;100.00;101123.34;5090036;28;20048;-70
2022/12/04 08:43:27;;;;;;;50.58;31.73;;;;;;;3.87;100.00;101145.47;5086750;28;20082;-70
2022/12/04 08:45:55;;;;;;;47.47;30.58;;;;;;;3.91;100.00;101151.53;5089769;28;20460;-70
2022/12/04 08:48:20;;;;;;;44.92;29.65;;;;;;;4.00;100.00;101135.16;5089798;28;20357;-70
2022/12/04 08:50:46;;;;;;;46.03;30.65;;;;;;;3.92;100.00;101116.94;5090150;28;20023;-70
2022/12/04 08:53:11;;;;;;;43.67;29.67;;;;;;;4.11;100.00;101146.13;5089930;28;20368;-70
2022/12/04 08:55:37;;;;;;;44.67;30.27;;;;;;;4.07;100.00;101134.78;5089657;28;20020;-70
2022/12/04 08:58:03;;;;;;;44.90;29.48;;;;;;;4.30;100.00;101160.22;5088792;28;20453;-70
2022/12/04 09:00:30;;;;;;;44.78;31.20;;;;;;;4.33;100.00;101160.06;5090702;28;20027;-70
2022/12/04 09:02:55;;;;;;;46.00;31.67;;;;;;;4.23;100.00;101145.53;5089578;28;20036;-70
2022/12/04 09:05:21;;;;;;;42.83;30.27;;;;;;;4.26;100.00;101143.56;5089420;28;20400;-70
2022/12/04 09:07:46;;;;;;;45.15;30.35;;;;;;;4.44;100.00;101163.06;5089388;28;20084;-70
2022/12/04 09:10:12;;;;;;;46.35;30.90;;;;;;;4.47;100.00;101157.59;5088150;28;20024;-71
2022/12/04 09:12:37;;;;;;;46.33;30.88;;;;;;;4.55;100.00;101166.06;5087282;28;20111;-70
2022/12/04 09:15:03;;;;;;;44.22;31.10;;;;;;;4.54;100.00;101145.72;5087050;28;20139;-70
2022/12/04 09:17:28;;;;;;;49.90;32.65;;;;;;;4.66;100.00;101140.69;5088435;28;20034;-70
2022/12/04 09:19:54;;;;;;;45.50;30.35;;;;;;;4.64;100.00;101121.28;5089021;28;20073;-70
2022/12/04 09:22:20;;;;;;;46.38;30.45;;;;;;;4.63;100.00;101097.44;5087746;28;20393;-70
2022/12/04 09:24:45;;;;;;;44.65;30.20;;;;;;;4.67;100.00;101091.03;5088782;28;20063;-70
2022/12/04 09:27:11;;;;;;;47.05;31.52;;;;;;;4.96;100.00;101132.06;5087236;28;20028;-71
2022/12/04 09:29:36;;;;;;;48.55;32.10;;;;;;;4.92;100.00;101112.75;5088812;28;20055;-70
2022/12/04 09:32:01;;;;;;;47.60;30.05;;;;;;;4.99;100.00;101114.16;5088569;28;20142;-70
2022/12/04 09:34:27;;;;;;;47.45;30.77;;;;;;;4.90;100.00;101068.59;5088532;28;20096;-71
2022/12/04 09:36:52;;;;;;;46.33;33.30;;;;;;;5.21;100.00;101105.88;5089077;28;20348;-71
2022/12/04 09:39:18;;;;;;;47.38;32.40;;;;;;;5.21;100.00;101111.22;5089021;28;20032;-70
2022/12/04 09:42:01;;;;;;;44.38;31.80;;;;;;;5.22;100.00;101092.50;5086934;28;20063;-70
2022/12/04 09:44:32;;;;;;;49.20;32.20;;;;;;;5.34;100.00;101107.81;5089028;28;20036;-71
2022/12/04 09:47:10;;;;;;;50.17;32.03;;;;;;;5.47;100.00;101108.00;5088164;28;20122;-71
2022/12/04 09:49:45;;;;;;;46.35;32.17;;;;;;;5.52;100.00;101105.97;5088275;28;20466;-75
2022/12/04 09:52:30;;;;;;;48.20;32.58;;;;;;;5.63;100.00;101099.13;5087680;28;20054;-74
2022/12/04 09:55:00;;;;;;;49.85;31.50;;;;;;;5.63;100.00;101096.44;5088664;28;20031;-74
2022/12/04 09:57:37;;;;;;;52.13;34.17;;;;;;;5.49;100.00;101083.06;5088251;28;20028;-70
2022/12/04 10:00:10;;;;;;;46.47;31.95;;;;;;;5.49;100.00;101075.06;5086832;28;20028;-70
2022/12/04 10:02:39;;;;;;;50.50;34.03;;;;;;;5.34;100.00;101067.06;5087215;28;20030;-70
2022/12/04 10:05:13;;;;;;;53.70;34.30;;;;;;;5.58;100.00;101087.84;5086994;28;20035;-71
2022/12/04 10:07:53;;;;;;;47.90;32.45;;;;;;;5.53;100.00;101089.06;5087400;28;20118;-73
2022/12/04 10:10:33;;;;;;;53.22;33.50;;;;;;;5.60;100.00;101088.63;5086903;28;20485;-71
2022/12/04 10:13:35;;;;;;;52.90;34.50;;;;;;;5.63;100.00;101076.97;5105546;27;20067;-71
2022/12/04 10:16:20;;;;;;;53.45;34.25;;;;;;;5.66;100.00;101069.69;5087951;28;20040;-74
2022/12/04 10:19:00;;;;;;;50.03;33.38;;;;;;;5.74;100.00;101083.41;5089668;28;20035;-74
2022/12/04 10:21:55;;;;;;;57.70;35.33;;;;;;;5.80;100.00;101072.41;5089753;28;20554;-75
2022/12/04 10:24:26;;;;;;;54.67;34.25;;;;;;;5.78;100.00;101065.47;5087569;28;20284;-71
2022/12/04 10:26:54;;;;;;;52.33;34.42;;;;;;;5.77;100.00;101061.94;5087541;28;20027;-71
2022/12/04 10:29:25;;;;;;;55.00;35.45;;;;;;;5.81;100.00;101050.19;5088072;28;20032;-71
2022/12/04 10:31:55;;;;;;;56.63;35.90;;;;;;;5.90;100.00;101051.50;5087538;28;20081;-76
2022/12/04 10:34:31;;;;;;;54.80;34.55;;;;;;;5.78;100.00;101046.84;5087375;28;20456;-74
2022/12/04 10:37:05;;;;;;;56.97;36.33;;;;;;;5.81;100.00;101049.31;5085648;28;20121;-74
2022/12/04 10:39:36;;;;;;;;;;;;;;;5.79;100.00;101041.44;5090660;28;20028;-74
2022/12/04 10:42:10;;;;;;;55.15;33.83;;;;;;;5.75;100.00;101012.41;5089580;28;20437;-75
2022/12/04 10:44:36;;;;;;;56.42;35.90;;;;;;;5.85;100.00;101011.84;5089982;28;20710;-75
2022/12/04 10:47:02;;;;;;;56.58;35.33;;;;;;;5.96;100.00;101020.06;5088453;28;20058;-74
2022/12/04 10:49:31;;;;;;;53.38;34.83;;;;;;;6.01;100.00;101017.13;5089166;28;20365;-75
2022/12/04 10:51:57;;;;;;;56.25;35.53;;;;;;;6.00;100.00;101023.41;5087913;28;20028;-74
2022/12/04 10:54:39;;;;;;;53.35;34.28;;;;;;;6.09;100.00;101014.84;5087937;28;20050;-74
2022/12/04 10:57:12;;;;;;;54.72;35.15;;;;;;;6.10;100.00;101017.44;5085307;28;20032;-74
2022/12/04 10:59:55;;;;;;;57.63;34.92;;;;;;;5.96;100.00;100998.75;5090699;28;20388;-70
2022/12/04 11:02:29;;;;;;;53.10;33.88;;;;;;;5.97;100.00;100983.66;5108612;28;20054;-70
2022/12/04 11:04:58;;;;;;;56.58;35.75;;;;;;;6.10;100.00;100996.13;5086525;28;20363;-70
2022/12/04 11:07:33;;;;;;;55.92;35.47;;;;;;;6.03;100.00;100977.97;5092678;28;20397;-70
2022/12/04 11:10:07;;;;;;;54.88;35.28;;;;;;;6.09;100.00;100969.59;5095209;28;20390;-76
2022/12/04 11:12:55;;;;;;;53.25;35.03;;;;;;;6.38;100.00;100995.34;5098745;28;20052;-70
2022/12/04 11:15:22;;;;;;;52.83;33.90;;;;;;;6.35;100.00;100969.75;5093004;28;20213;-71
2022/12/04 11:17:48;;;;;;;55.00;34.85;;;;;;;6.51;100.00;100989.22;5085654;28;20028;-70
2022/12/04 11:20:24;;;;;;;53.67;35.00;;;;;;;6.52;100.00;100982.91;5085910;28;20112;-70
2022/12/04 11:22:58;;;;;;;52.58;34.63;;;;;;;6.55;100.00;100984.56;5089300;28;20468;-70
2022/12/04 11:25:36;;;;;;;50.78;33.53;;;;;;;6.60;100.00;100977.13;5086005;28;20028;-69
2022/12/04 11:28:03;;;;;;;55.50;34.05;;;;;;;6.67;100.00;100987.31;5086539;28;20062;-69
2022/12/04 11:30:32;;;;;;;53.45;34.40;;;;;;;6.65;100.00;100978.56;5087306;28;20051;-70
2022/12/04 11:32:59;;;;;;;51.25;34.75;;;;;;;6.59;100.00;100954.97;5086834;28;20078;-69
2022/12/04 11:35:27;;;;;;;54.95;33.63;;;;;;;6.70;100.00;100967.63;5085640;28;20506;-70
2022/12/04 11:37:57;;;;;;;51.72;33.58;;;;;;;6.64;100.00;100938.66;5088522;28;20024;-69